Terminal Aerodrome Forecast
Issued by NWS

Home | Current Version | Previous Version | Graphics & Text | Print | Product List | Glossary Off
Versions: 1 2 3 4 5 6 7 8 9 10 11 12 13 14 15 16 17 18 19 20 21 22 23 24 25 26

000
FTUS43 KDDC 300251 AAB
TAFHYS
TAF AMD
KHYS 300251Z 3003/3024 32007KT 3SM BR FEW004 BKN012 OVC027
     FM300700 33012KT P6SM OVC007
     FM301600 29015KT P6SM BKN025=

USA.gov is the U.S. government's official web portal to all federal, state and local government web resources and services.